sensor_id;sensor_type;location;lat;lon;timestamp;temperature;humidity
55083;DHT22;40978;52.850;6.506;2022-07-24T00:00:16;15.50;99.90
55083;DHT22;40978;52.850;6.506;2022-07-24T00:02:42;15.50;99.90
55083;DHT22;40978;52.850;6.506;2022-07-24T00:05:08;15.50;99.90
55083;DHT22;40978;52.850;6.506;2022-07-24T00:07:35;15.50;99.90
55083;DHT22;40978;52.850;6.506;2022-07-24T00:10:02;15.50;99.90
55083;DHT22;40978;52.850;6.506;2022-07-24T00:12:27;15.50;99.90
55083;DHT22;40978;52.850;6.506;2022-07-24T00:14:54;15.40;99.90
55083;DHT22;40978;52.850;6.506;2022-07-24T00:17:19;15.40;99.90
55083;DHT22;40978;52.850;6.506;2022-07-24T00:19:45;15.40;99.90
55083;DHT22;40978;52.850;6.506;2022-07-24T00:22:11;15.40;99.90
55083;DHT22;40978;52.850;6.506;2022-07-24T00:24:36;15.40;99.90
55083;DHT22;40978;52.850;6.506;2022-07-24T00:27:02;15.40;99.90
55083;DHT22;40978;52.850;6.506;2022-07-24T00:29:28;15.40;99.90
55083;DHT22;40978;52.850;6.506;2022-07-24T00:31:54;15.40;99.90
55083;DHT22;40978;52.850;6.506;2022-07-24T00:34:20;15.30;99.90
55083;DHT22;40978;52.850;6.506;2022-07-24T00:36:45;15.30;99.90
55083;DHT22;40978;52.850;6.506;2022-07-24T00:39:12;15.30;99.90
55083;DHT22;40978;52.850;6.506;2022-07-24T00:41:38;15.30;99.90
55083;DHT22;40978;52.850;6.506;2022-07-24T00:44:07;15.20;99.90
55083;DHT22;40978;52.850;6.506;2022-07-24T00:46:34;15.30;99.90
55083;DHT22;40978;52.850;6.506;2022-07-24T00:49:02;15.30;99.90
55083;DHT22;40978;52.850;6.506;2022-07-24T00:51:28;15.20;99.90
55083;DHT22;40978;52.850;6.506;2022-07-24T00:53:54;15.20;99.90
55083;DHT22;40978;52.850;6.506;2022-07-24T00:56:20;15.20;99.90
55083;DHT22;40978;52.850;6.506;2022-07-24T00:58:47;15.20;99.90
55083;DHT22;40978;52.850;6.506;2022-07-24T01:01:13;15.20;99.90
55083;DHT22;40978;52.850;6.506;2022-07-24T01:03:39;15.20;99.90
55083;DHT22;40978;52.850;6.506;2022-07-24T01:06:06;15.20;99.90
55083;DHT22;40978;52.850;6.506;2022-07-24T01:08:33;15.10;99.90
55083;DHT22;40978;52.850;6.506;2022-07-24T01:11:01;15.10;99.90
55083;DHT22;40978;52.850;6.506;2022-07-24T01:13:27;15.10;99.90
55083;DHT22;40978;52.850;6.506;2022-07-24T01:15:54;15.10;99.90
55083;DHT22;40978;52.850;6.506;2022-07-24T01:18:19;15.00;99.90
55083;DHT22;40978;52.850;6.506;2022-07-24T01:20:49;15.00;99.90
55083;DHT22;40978;52.850;6.506;2022-07-24T01:23:15;15.00;99.90
55083;DHT22;40978;52.850;6.506;2022-07-24T01:25:41;15.00;99.90
55083;DHT22;40978;52.850;6.506;2022-07-24T01:28:07;14.90;99.90
55083;DHT22;40978;52.850;6.506;2022-07-24T01:30:33;14.90;99.90
55083;DHT22;40978;52.850;6.506;2022-07-24T01:32:59;14.90;99.90
55083;DHT22;40978;52.850;6.506;2022-07-24T01:35:25;14.90;99.90
55083;DHT22;40978;52.850;6.506;2022-07-24T01:37:52;14.80;99.90
55083;DHT22;40978;52.850;6.506;2022-07-24T01:40:19;14.80;99.90
55083;DHT22;40978;52.850;6.506;2022-07-24T01:42:45;14.80;99.90
55083;DHT22;40978;52.850;6.506;2022-07-24T01:45:12;14.80;99.90
55083;DHT22;40978;52.850;6.506;2022-07-24T01:47:39;14.80;99.90
55083;DHT22;40978;52.850;6.506;2022-07-24T01:50:05;14.80;99.90
55083;DHT22;40978;52.850;6.506;2022-07-24T01:52:31;14.70;99.90
55083;DHT22;40978;52.850;6.506;2022-07-24T01:54:56;14.70;99.90
55083;DHT22;40978;52.850;6.506;2022-07-24T01:57:22;14.80;99.90
55083;DHT22;40978;52.850;6.506;2022-07-24T01:59:48;14.70;99.90
55083;DHT22;40978;52.850;6.506;2022-07-24T02:02:14;14.70;99.90
55083;DHT22;40978;52.850;6.506;2022-07-24T02:04:39;14.70;99.90
55083;DHT22;40978;52.850;6.506;2022-07-24T02:07:05;14.70;99.90
55083;DHT22;40978;52.850;6.506;2022-07-24T02:09:31;14.80;99.90
55083;DHT22;40978;52.850;6.506;2022-07-24T02:11:56;14.80;99.90
55083;DHT22;40978;52.850;6.506;2022-07-24T02:14:22;14.80;99.90
55083;DHT22;40978;52.850;6.506;2022-07-24T02:16:48;14.80;99.90
55083;DHT22;40978;52.850;6.506;2022-07-24T02:19:14;14.70;99.90
55083;DHT22;40978;52.850;6.506;2022-07-24T02:21:39;14.80;99.90
55083;DHT22;40978;52.850;6.506;2022-07-24T02:24:05;14.80;99.90
55083;DHT22;40978;52.850;6.506;2022-07-24T02:26:31;14.80;99.90
55083;DHT22;40978;52.850;6.506;2022-07-24T02:28:57;14.80;99.90
55083;DHT22;40978;52.850;6.506;2022-07-24T02:31:23;14.80;99.90
55083;DHT22;40978;52.850;6.506;2022-07-24T02:33:48;14.80;99.90
55083;DHT22;40978;52.850;6.506;2022-07-24T02:36:14;14.80;99.90
55083;DHT22;40978;52.850;6.506;2022-07-24T02:38:41;14.80;99.90
55083;DHT22;40978;52.850;6.506;2022-07-24T02:41:07;14.80;99.90
55083;DHT22;40978;52.850;6.506;2022-07-24T02:43:32;14.80;99.90
55083;DHT22;40978;52.850;6.506;2022-07-24T02:45:58;14.80;99.90
55083;DHT22;40978;52.850;6.506;2022-07-24T02:48:24;14.80;99.90
55083;DHT22;40978;52.850;6.506;2022-07-24T02:50:49;14.80;99.90
55083;DHT22;40978;52.850;6.506;2022-07-24T02:53:15;14.80;99.90
55083;DHT22;40978;52.850;6.506;2022-07-24T02:55:41;14.90;99.90
55083;DHT22;40978;52.850;6.506;2022-07-24T02:58:06;14.80;99.90
55083;DHT22;40978;52.850;6.506;2022-07-24T03:00:32;14.80;99.90
55083;DHT22;40978;52.850;6.506;2022-07-24T03:02:58;14.80;99.90
55083;DHT22;40978;52.850;6.506;2022-07-24T03:05:24;14.80;99.90
55083;DHT22;40978;52.850;6.506;2022-07-24T03:07:49;14.80;99.90
55083;DHT22;40978;52.850;6.506;2022-07-24T03:10:15;14.80;99.90
55083;DHT22;40978;52.850;6.506;2022-07-24T03:12:42;14.80;99.90
55083;DHT22;40978;52.850;6.506;2022-07-24T03:15:08;14.80;99.90
55083;DHT22;40978;52.850;6.506;2022-07-24T03:17:34;14.80;99.90
55083;DHT22;40978;52.850;6.506;2022-07-24T03:20:00;14.80;99.90
55083;DHT22;40978;52.850;6.506;2022-07-24T03:22:26;14.80;99.90
55083;DHT22;40978;52.850;6.506;2022-07-24T03:24:51;14.80;99.90
55083;DHT22;40978;52.850;6.506;2022-07-24T03:27:17;14.80;99.90
55083;DHT22;40978;52.850;6.506;2022-07-24T03:29:43;14.70;99.90
55083;DHT22;40978;52.850;6.506;2022-07-24T03:32:08;14.70;99.90
55083;DHT22;40978;52.850;6.506;2022-07-24T03:34:34;14.70;99.90
55083;DHT22;40978;52.850;6.506;2022-07-24T03:37:00;14.70;99.90
55083;DHT22;40978;52.850;6.506;2022-07-24T03:39:25;14.70;99.90
55083;DHT22;40978;52.850;6.506;2022-07-24T03:41:51;14.70;99.90
55083;DHT22;40978;52.850;6.506;2022-07-24T03:44:17;14.70;99.90
55083;DHT22;40978;52.850;6.506;2022-07-24T03:46:42;14.80;99.90
55083;DHT22;40978;52.850;6.506;2022-07-24T03:49:08;14.80;99.90
55083;DHT22;40978;52.850;6.506;2022-07-24T03:51:34;14.80;99.90
55083;DHT22;40978;52.850;6.506;2022-07-24T03:54:01;14.80;99.90
55083;DHT22;40978;52.850;6.506;2022-07-24T03:56:28;14.80;99.90
55083;DHT22;40978;52.850;6.506;2022-07-24T03:58:54;14.80;99.90
55083;DHT22;40978;52.850;6.506;2022-07-24T04:01:20;14.80;99.90
55083;DHT22;40978;52.850;6.506;2022-07-24T04:03:46;14.90;99.90
55083;DHT22;40978;52.850;6.506;2022-07-24T04:06:12;14.90;99.90
55083;DHT22;40978;52.850;6.506;2022-07-24T04:08:39;14.90;99.90
55083;DHT22;40978;52.850;6.506;2022-07-24T04:11:05;14.90;99.90
55083;DHT22;40978;52.850;6.506;2022-07-24T04:13:32;15.00;99.90
55083;DHT22;40978;52.850;6.506;2022-07-24T04:15:58;15.00;99.90
55083;DHT22;40978;52.850;6.506;2022-07-24T04:18:24;15.00;99.90
55083;DHT22;40978;52.850;6.506;2022-07-24T04:20:50;15.00;99.90
55083;DHT22;40978;52.850;6.506;2022-07-24T04:23:16;15.00;99.90
55083;DHT22;40978;52.850;6.506;2022-07-24T04:25:42;15.10;99.90
55083;DHT22;40978;52.850;6.506;2022-07-24T04:28:07;15.10;99.90
55083;DHT22;40978;52.850;6.506;2022-07-24T04:30:33;15.10;99.90
55083;DHT22;40978;52.850;6.506;2022-07-24T04:32:59;15.10;99.90
55083;DHT22;40978;52.850;6.506;2022-07-24T04:35:25;15.10;99.90
55083;DHT22;40978;52.850;6.506;2022-07-24T04:37:51;15.10;99.90
55083;DHT22;40978;52.850;6.506;2022-07-24T04:40:16;15.20;99.90
55083;DHT22;40978;52.850;6.506;2022-07-24T04:42:42;15.20;99.90
55083;DHT22;40978;52.850;6.506;2022-07-24T04:45:08;15.20;99.90
55083;DHT22;40978;52.850;6.506;2022-07-24T04:47:35;15.30;99.90
55083;DHT22;40978;52.850;6.506;2022-07-24T04:50:03;15.30;99.90
55083;DHT22;40978;52.850;6.506;2022-07-24T04:52:29;15.40;99.90
55083;DHT22;40978;52.850;6.506;2022-07-24T04:54:58;15.40;99.90
55083;DHT22;40978;52.850;6.506;2022-07-24T04:57:24;15.50;99.90
55083;DHT22;40978;52.850;6.506;2022-07-24T04:59:49;15.60;99.90
55083;DHT22;40978;52.850;6.506;2022-07-24T05:02:15;15.70;99.90
55083;DHT22;40978;52.850;6.506;2022-07-24T05:04:41;15.90;99.90
55083;DHT22;40978;52.850;6.506;2022-07-24T05:07:06;16.00;99.90
55083;DHT22;40978;52.850;6.506;2022-07-24T05:09:32;16.10;99.90
55083;DHT22;40978;52.850;6.506;2022-07-24T05:11:58;16.40;99.90
55083;DHT22;40978;52.850;6.506;2022-07-24T05:14:23;16.60;99.90
55083;DHT22;40978;52.850;6.506;2022-07-24T05:16:49;16.80;99.90
55083;DHT22;40978;52.850;6.506;2022-07-24T05:19:15;16.90;99.90
55083;DHT22;40978;52.850;6.506;2022-07-24T05:21:40;17.00;99.90
55083;DHT22;40978;52.850;6.506;2022-07-24T05:24:06;17.40;99.90
55083;DHT22;40978;52.850;6.506;2022-07-24T05:26:32;17.70;99.90
55083;DHT22;40978;52.850;6.506;2022-07-24T05:28:59;17.70;99.90
55083;DHT22;40978;52.850;6.506;2022-07-24T05:31:25;17.90;99.90
55083;DHT22;40978;52.850;6.506;2022-07-24T05:33:51;17.90;99.90
55083;DHT22;40978;52.850;6.506;2022-07-24T05:36:17;18.00;99.90
55083;DHT22;40978;52.850;6.506;2022-07-24T05:38:43;18.00;99.90
55083;DHT22;40978;52.850;6.506;2022-07-24T05:41:10;17.90;99.90
55083;DHT22;40978;52.850;6.506;2022-07-24T05:43:36;17.90;99.90
55083;DHT22;40978;52.850;6.506;2022-07-24T05:46:03;17.80;99.90
55083;DHT22;40978;52.850;6.506;2022-07-24T05:48:28;17.90;99.90
55083;DHT22;40978;52.850;6.506;2022-07-24T05:50:54;17.90;99.90
55083;DHT22;40978;52.850;6.506;2022-07-24T05:53:20;17.90;99.90
55083;DHT22;40978;52.850;6.506;2022-07-24T05:55:46;18.00;99.90
55083;DHT22;40978;52.850;6.506;2022-07-24T05:58:12;18.10;99.90
55083;DHT22;40978;52.850;6.506;2022-07-24T06:00:37;18.10;99.90
55083;DHT22;40978;52.850;6.506;2022-07-24T06:03:03;18.10;99.90
55083;DHT22;40978;52.850;6.506;2022-07-24T06:05:29;18.20;99.90
55083;DHT22;40978;52.850;6.506;2022-07-24T06:07:54;18.30;99.90
55083;DHT22;40978;52.850;6.506;2022-07-24T06:10:20;18.40;99.90
55083;DHT22;40978;52.850;6.506;2022-07-24T06:12:46;18.60;99.90
55083;DHT22;40978;52.850;6.506;2022-07-24T06:15:11;18.70;99.90
55083;DHT22;40978;52.850;6.506;2022-07-24T06:17:38;18.80;99.90
55083;DHT22;40978;52.850;6.506;2022-07-24T06:20:05;19.00;99.90
55083;DHT22;40978;52.850;6.506;2022-07-24T06:22:31;19.10;99.90
55083;DHT22;40978;52.850;6.506;2022-07-24T06:24:57;19.20;99.90
55083;DHT22;40978;52.850;6.506;2022-07-24T06:27:22;19.30;99.90
55083;DHT22;40978;52.850;6.506;2022-07-24T06:29:48;19.40;99.90
55083;DHT22;40978;52.850;6.506;2022-07-24T06:32:14;19.50;99.90
55083;DHT22;40978;52.850;6.506;2022-07-24T06:34:39;19.70;99.90
55083;DHT22;40978;52.850;6.506;2022-07-24T06:37:05;19.80;99.90
55083;DHT22;40978;52.850;6.506;2022-07-24T06:39:31;20.00;99.90
55083;DHT22;40978;52.850;6.506;2022-07-24T06:41:56;20.10;99.90
55083;DHT22;40978;52.850;6.506;2022-07-24T06:44:22;20.20;99.90
55083;DHT22;40978;52.850;6.506;2022-07-24T06:46:48;20.30;99.90
55083;DHT22;40978;52.850;6.506;2022-07-24T06:49:14;20.40;99.90
55083;DHT22;40978;52.850;6.506;2022-07-24T06:51:39;20.60;99.90
55083;DHT22;40978;52.850;6.506;2022-07-24T06:54:05;20.70;99.90
55083;DHT22;40978;52.850;6.506;2022-07-24T06:56:31;20.80;99.90
55083;DHT22;40978;52.850;6.506;2022-07-24T06:58:57;20.90;99.90
55083;DHT22;40978;52.850;6.506;2022-07-24T07:01:23;21.00;99.90
55083;DHT22;40978;52.850;6.506;2022-07-24T07:03:52;21.20;99.90
55083;DHT22;40978;52.850;6.506;2022-07-24T07:06:18;21.30;99.90
55083;DHT22;40978;52.850;6.506;2022-07-24T07:08:44;21.40;99.90
55083;DHT22;40978;52.850;6.506;2022-07-24T07:11:10;21.50;99.90
55083;DHT22;40978;52.850;6.506;2022-07-24T07:13:35;21.70;99.90
55083;DHT22;40978;52.850;6.506;2022-07-24T07:16:01;21.80;99.90
55083;DHT22;40978;52.850;6.506;2022-07-24T07:18:27;21.90;99.90
55083;DHT22;40978;52.850;6.506;2022-07-24T07:20:53;22.00;99.90
55083;DHT22;40978;52.850;6.506;2022-07-24T07:23:21;22.20;99.90
55083;DHT22;40978;52.850;6.506;2022-07-24T07:25:48;22.30;99.90
55083;DHT22;40978;52.850;6.506;2022-07-24T07:28:14;22.40;99.90
55083;DHT22;40978;52.850;6.506;2022-07-24T07:30:39;22.50;99.90
55083;DHT22;40978;52.850;6.506;2022-07-24T07:33:05;22.60;99.90
55083;DHT22;40978;52.850;6.506;2022-07-24T07:35:31;22.80;99.90
55083;DHT22;40978;52.850;6.506;2022-07-24T07:37:56;22.90;99.90
55083;DHT22;40978;52.850;6.506;2022-07-24T07:40:23;23.00;99.90
55083;DHT22;40978;52.850;6.506;2022-07-24T07:42:49;23.20;99.90
55083;DHT22;40978;52.850;6.506;2022-07-24T07:45:15;23.40;99.90
55083;DHT22;40978;52.850;6.506;2022-07-24T07:47:40;23.60;99.90
55083;DHT22;40978;52.850;6.506;2022-07-24T07:50:07;23.70;99.90
55083;DHT22;40978;52.850;6.506;2022-07-24T07:52:32;23.90;99.90
55083;DHT22;40978;52.850;6.506;2022-07-24T07:54:58;24.00;99.90
55083;DHT22;40978;52.850;6.506;2022-07-24T07:57:24;24.20;99.90
55083;DHT22;40978;52.850;6.506;2022-07-24T07:59:49;24.20;99.90
55083;DHT22;40978;52.850;6.506;2022-07-24T08:02:15;24.30;99.70
55083;DHT22;40978;52.850;6.506;2022-07-24T08:04:41;24.50;99.30
55083;DHT22;40978;52.850;6.506;2022-07-24T08:07:07;24.70;98.50
55083;DHT22;40978;52.850;6.506;2022-07-24T08:09:33;24.90;98.50
55083;DHT22;40978;52.850;6.506;2022-07-24T08:11:59;25.20;98.40
55083;DHT22;40978;52.850;6.506;2022-07-24T08:14:24;25.50;96.00
55083;DHT22;40978;52.850;6.506;2022-07-24T08:16:50;25.90;96.30
55083;DHT22;40978;52.850;6.506;2022-07-24T08:19:16;26.20;95.60
55083;DHT22;40978;52.850;6.506;2022-07-24T08:21:41;26.40;93.90
55083;DHT22;40978;52.850;6.506;2022-07-24T08:24:07;26.70;92.60
55083;DHT22;40978;52.850;6.506;2022-07-24T08:26:33;27.10;91.30
55083;DHT22;40978;52.850;6.506;2022-07-24T08:28:59;27.30;90.10
55083;DHT22;40978;52.850;6.506;2022-07-24T08:31:26;27.30;88.40
55083;DHT22;40978;52.850;6.506;2022-07-24T08:33:51;27.50;88.20
55083;DHT22;40978;52.850;6.506;2022-07-24T08:36:17;27.60;87.50
55083;DHT22;40978;52.850;6.506;2022-07-24T08:38:43;27.90;84.60
55083;DHT22;40978;52.850;6.506;2022-07-24T08:41:08;27.80;82.30
55083;DHT22;40978;52.850;6.506;2022-07-24T08:43:34;27.70;80.60
55083;DHT22;40978;52.850;6.506;2022-07-24T08:46:00;27.70;80.60
55083;DHT22;40978;52.850;6.506;2022-07-24T08:48:27;27.80;79.10
55083;DHT22;40978;52.850;6.506;2022-07-24T08:50:53;27.70;78.90
55083;DHT22;40978;52.850;6.506;2022-07-24T08:53:21;27.70;77.00
55083;DHT22;40978;52.850;6.506;2022-07-24T08:55:48;28.00;76.10
55083;DHT22;40978;52.850;6.506;2022-07-24T08:58:13;28.60;77.40
55083;DHT22;40978;52.850;6.506;2022-07-24T09:00:39;29.20;76.00
55083;DHT22;40978;52.850;6.506;2022-07-24T09:03:06;29.60;73.40
55083;DHT22;40978;52.850;6.506;2022-07-24T09:05:32;29.70;71.60
55083;DHT22;40978;52.850;6.506;2022-07-24T09:08:10;30.00;70.50
55083;DHT22;40978;52.850;6.506;2022-07-24T09:10:36;30.20;68.50
55083;DHT22;40978;52.850;6.506;2022-07-24T09:13:16;30.20;67.10
55083;DHT22;40978;52.850;6.506;2022-07-24T09:15:51;30.30;63.30
55083;DHT22;40978;52.850;6.506;2022-07-24T09:18:33;30.50;62.60
55083;DHT22;40978;52.850;6.506;2022-07-24T09:21:11;30.80;65.80
55083;DHT22;40978;52.850;6.506;2022-07-24T09:23:39;30.80;66.40
55083;DHT22;40978;52.850;6.506;2022-07-24T09:26:04;30.90;64.90
55083;DHT22;40978;52.850;6.506;2022-07-24T09:28:52;31.10;63.40
55083;DHT22;40978;52.850;6.506;2022-07-24T09:31:18;31.20;60.00
55083;DHT22;40978;52.850;6.506;2022-07-24T09:33:44;31.20;60.90
55083;DHT22;40978;52.850;6.506;2022-07-24T09:36:14;31.10;59.70
55083;DHT22;40978;52.850;6.506;2022-07-24T09:38:50;30.60;60.00
55083;DHT22;40978;52.850;6.506;2022-07-24T09:41:23;30.30;60.30
55083;DHT22;40978;52.850;6.506;2022-07-24T09:43:59;30.00;61.90
55083;DHT22;40978;52.850;6.506;2022-07-24T09:46:26;30.20;62.00
55083;DHT22;40978;52.850;6.506;2022-07-24T09:48:58;30.60;61.90
55083;DHT22;40978;52.850;6.506;2022-07-24T09:51:26;31.00;61.00
55083;DHT22;40978;52.850;6.506;2022-07-24T09:53:59;31.10;60.50
55083;DHT22;40978;52.850;6.506;2022-07-24T09:56:25;31.10;59.70
55083;DHT22;40978;52.850;6.506;2022-07-24T09:58:53;31.20;59.50
55083;DHT22;40978;52.850;6.506;2022-07-24T10:01:21;31.10;58.60
55083;DHT22;40978;52.850;6.506;2022-07-24T10:03:48;31.20;58.20
55083;DHT22;40978;52.850;6.506;2022-07-24T10:06:17;31.40;59.10
55083;DHT22;40978;52.850;6.506;2022-07-24T10:08:45;31.50;57.70
55083;DHT22;40978;52.850;6.506;2022-07-24T10:11:13;31.70;56.50
55083;DHT22;40978;52.850;6.506;2022-07-24T10:13:39;31.80;55.90
55083;DHT22;40978;52.850;6.506;2022-07-24T10:19:14;32.00;54.70
55083;DHT22;40978;52.850;6.506;2022-07-24T10:21:45;31.80;53.40
55083;DHT22;40978;52.850;6.506;2022-07-24T10:27:03;31.90;53.90
55083;DHT22;40978;52.850;6.506;2022-07-24T10:29:33;31.90;55.40
55083;DHT22;40978;52.850;6.506;2022-07-24T10:31:59;31.90;54.10
55083;DHT22;40978;52.850;6.506;2022-07-24T10:34:46;31.90;53.80
55083;DHT22;40978;52.850;6.506;2022-07-24T10:37:32;31.90;54.90
55083;DHT22;40978;52.850;6.506;2022-07-24T10:40:23;31.90;53.80
55083;DHT22;40978;52.850;6.506;2022-07-24T10:48:45;32.20;53.20
55083;DHT22;40978;52.850;6.506;2022-07-24T10:51:12;32.30;52.60
55083;DHT22;40978;52.850;6.506;2022-07-24T10:53:51;32.00;52.90
55083;DHT22;40978;52.850;6.506;2022-07-24T10:56:18;31.60;53.10
55083;DHT22;40978;52.850;6.506;2022-07-24T10:59:06;31.40;53.70
55083;DHT22;40978;52.850;6.506;2022-07-24T11:01:42;31.20;53.60
55083;DHT22;40978;52.850;6.506;2022-07-24T11:06:46;31.70;55.80
55083;DHT22;40978;52.850;6.506;2022-07-24T11:09:13;32.00;54.60
55083;DHT22;40978;52.850;6.506;2022-07-24T11:12:03;32.40;54.70
55083;DHT22;40978;52.850;6.506;2022-07-24T11:17:36;32.90;50.60
55083;DHT22;40978;52.850;6.506;2022-07-24T11:20:02;33.10;52.20
55083;DHT22;40978;52.850;6.506;2022-07-24T11:22:57;33.10;52.00
55083;DHT22;40978;52.850;6.506;2022-07-24T11:25:28;33.30;52.50
55083;DHT22;40978;52.850;6.506;2022-07-24T11:28:12;33.30;50.20
55083;DHT22;40978;52.850;6.506;2022-07-24T11:30:43;33.40;49.60
55083;DHT22;40978;52.850;6.506;2022-07-24T11:33:10;33.40;49.80
55083;DHT22;40978;52.850;6.506;2022-07-24T11:35:37;33.40;51.60
55083;DHT22;40978;52.850;6.506;2022-07-24T11:38:05;33.50;50.60
55083;DHT22;40978;52.850;6.506;2022-07-24T11:40:32;33.60;49.80
55083;DHT22;40978;52.850;6.506;2022-07-24T11:43:01;33.70;48.00
55083;DHT22;40978;52.850;6.506;2022-07-24T11:45:27;33.70;48.20
55083;DHT22;40978;52.850;6.506;2022-07-24T11:47:52;33.70;47.80
55083;DHT22;40978;52.850;6.506;2022-07-24T11:50:23;33.70;47.20
55083;DHT22;40978;52.850;6.506;2022-07-24T11:52:49;33.60;47.00
55083;DHT22;40978;52.850;6.506;2022-07-24T11:55:17;33.50;47.40
55083;DHT22;40978;52.850;6.506;2022-07-24T11:57:46;33.50;47.20
55083;DHT22;40978;52.850;6.506;2022-07-24T12:00:15;33.40;46.60
55083;DHT22;40978;52.850;6.506;2022-07-24T12:02:53;33.50;46.90
55083;DHT22;40978;52.850;6.506;2022-07-24T12:05:31;33.70;46.50
55083;DHT22;40978;52.850;6.506;2022-07-24T12:08:00;33.80;46.50
55083;DHT22;40978;52.850;6.506;2022-07-24T12:10:26;33.90;47.10
55083;DHT22;40978;52.850;6.506;2022-07-24T12:12:54;34.00;45.60
55083;DHT22;40978;52.850;6.506;2022-07-24T12:15:21;33.80;45.00
55083;DHT22;40978;52.850;6.506;2022-07-24T12:18:00;33.50;47.00
55083;DHT22;40978;52.850;6.506;2022-07-24T12:20:37;33.60;47.90
55083;DHT22;40978;52.850;6.506;2022-07-24T12:23:06;33.70;47.20
55083;DHT22;40978;52.850;6.506;2022-07-24T12:25:32;33.60;45.70
55083;DHT22;40978;52.850;6.506;2022-07-24T12:30:32;33.40;46.50
55083;DHT22;40978;52.850;6.506;2022-07-24T12:33:08;33.40;46.50
55083;DHT22;40978;52.850;6.506;2022-07-24T12:38:28;33.70;47.00
55083;DHT22;40978;52.850;6.506;2022-07-24T12:41:13;33.70;47.00
55083;DHT22;40978;52.850;6.506;2022-07-24T12:43:48;33.70;47.00
55083;DHT22;40978;52.850;6.506;2022-07-24T12:46:14;33.80;47.10
55083;DHT22;40978;52.850;6.506;2022-07-24T12:48:39;33.80;47.50
55083;DHT22;40978;52.850;6.506;2022-07-24T12:51:10;33.70;47.00
55083;DHT22;40978;52.850;6.506;2022-07-24T12:53:42;33.70;46.50
55083;DHT22;40978;52.850;6.506;2022-07-24T12:56:14;33.70;48.20
55083;DHT22;40978;52.850;6.506;2022-07-24T13:01:13;33.70;46.50
55083;DHT22;40978;52.850;6.506;2022-07-24T13:03:38;33.60;47.50
55083;DHT22;40978;52.850;6.506;2022-07-24T13:06:04;33.70;46.70
55083;DHT22;40978;52.850;6.506;2022-07-24T13:08:30;33.70;46.50
55083;DHT22;40978;52.850;6.506;2022-07-24T13:10:55;33.70;46.70
55083;DHT22;40978;52.850;6.506;2022-07-24T13:13:22;33.50;48.00
55083;DHT22;40978;52.850;6.506;2022-07-24T13:15:48;33.60;47.70
55083;DHT22;40978;52.850;6.506;2022-07-24T13:18:13;33.70;46.50
55083;DHT22;40978;52.850;6.506;2022-07-24T13:20:39;33.70;46.50
55083;DHT22;40978;52.850;6.506;2022-07-24T13:23:05;33.60;47.20
55083;DHT22;40978;52.850;6.506;2022-07-24T13:25:30;33.50;48.40
55083;DHT22;40978;52.850;6.506;2022-07-24T13:27:56;33.40;46.70
55083;DHT22;40978;52.850;6.506;2022-07-24T13:30:22;33.50;46.80
55083;DHT22;40978;52.850;6.506;2022-07-24T13:32:47;33.50;47.30
55083;DHT22;40978;52.850;6.506;2022-07-24T13:35:13;33.50;47.00
55083;DHT22;40978;52.850;6.506;2022-07-24T13:37:39;33.50;46.40
55083;DHT22;40978;52.850;6.506;2022-07-24T13:40:06;33.50;46.50
55083;DHT22;40978;52.850;6.506;2022-07-24T13:42:33;33.40;45.90
55083;DHT22;40978;52.850;6.506;2022-07-24T13:44:59;33.20;45.90
55083;DHT22;40978;52.850;6.506;2022-07-24T13:47:25;33.10;47.10
55083;DHT22;40978;52.850;6.506;2022-07-24T13:49:50;33.10;46.80
55083;DHT22;40978;52.850;6.506;2022-07-24T13:52:16;33.10;47.20
55083;DHT22;40978;52.850;6.506;2022-07-24T13:54:42;33.10;46.60
55083;DHT22;40978;52.850;6.506;2022-07-24T13:57:07;33.10;46.50
55083;DHT22;40978;52.850;6.506;2022-07-24T13:59:33;33.00;46.90
55083;DHT22;40978;52.850;6.506;2022-07-24T14:02:00;32.90;48.10
55083;DHT22;40978;52.850;6.506;2022-07-24T14:04:26;32.90;48.40
55083;DHT22;40978;52.850;6.506;2022-07-24T14:06:52;32.90;47.90
55083;DHT22;40978;52.850;6.506;2022-07-24T14:09:18;33.00;47.10
55083;DHT22;40978;52.850;6.506;2022-07-24T14:11:43;32.90;47.30
55083;DHT22;40978;52.850;6.506;2022-07-24T14:14:09;32.90;47.90
55083;DHT22;40978;52.850;6.506;2022-07-24T14:16:35;32.80;47.10
55083;DHT22;40978;52.850;6.506;2022-07-24T14:19:02;32.70;47.60
55083;DHT22;40978;52.850;6.506;2022-07-24T14:21:28;32.70;48.50
55083;DHT22;40978;52.850;6.506;2022-07-24T14:23:55;32.60;47.50
55083;DHT22;40978;52.850;6.506;2022-07-24T14:26:21;32.50;47.10
55083;DHT22;40978;52.850;6.506;2022-07-24T14:28:47;32.20;48.20
55083;DHT22;40978;52.850;6.506;2022-07-24T14:31:12;32.10;48.30
55083;DHT22;40978;52.850;6.506;2022-07-24T14:33:38;32.00;47.70
55083;DHT22;40978;52.850;6.506;2022-07-24T14:36:05;31.80;49.10
55083;DHT22;40978;52.850;6.506;2022-07-24T14:38:30;31.80;49.40
55083;DHT22;40978;52.850;6.506;2022-07-24T14:40:56;31.80;49.30
55083;DHT22;40978;52.850;6.506;2022-07-24T14:43:22;31.80;48.80
55083;DHT22;40978;52.850;6.506;2022-07-24T14:45:47;31.80;49.20
55083;DHT22;40978;52.850;6.506;2022-07-24T14:48:13;31.80;49.20
55083;DHT22;40978;52.850;6.506;2022-07-24T14:50:39;31.60;49.40
55083;DHT22;40978;52.850;6.506;2022-07-24T14:53:04;31.60;50.30
55083;DHT22;40978;52.850;6.506;2022-07-24T14:55:30;31.50;50.80
55083;DHT22;40978;52.850;6.506;2022-07-24T14:57:55;31.30;51.50
55083;DHT22;40978;52.850;6.506;2022-07-24T15:00:22;31.10;51.30
55083;DHT22;40978;52.850;6.506;2022-07-24T15:02:47;31.10;51.00
55083;DHT22;40978;52.850;6.506;2022-07-24T15:05:13;31.00;51.00
55083;DHT22;40978;52.850;6.506;2022-07-24T15:07:39;30.90;51.70
55083;DHT22;40978;52.850;6.506;2022-07-24T15:10:05;30.90;51.70
55083;DHT22;40978;52.850;6.506;2022-07-24T15:12:30;30.90;51.50
55083;DHT22;40978;52.850;6.506;2022-07-24T15:14:56;30.90;52.30
55083;DHT22;40978;52.850;6.506;2022-07-24T15:17:22;30.90;52.20
55083;DHT22;40978;52.850;6.506;2022-07-24T15:19:47;31.00;52.20
55083;DHT22;40978;52.850;6.506;2022-07-24T15:22:13;30.80;52.00
55083;DHT22;40978;52.850;6.506;2022-07-24T15:24:39;30.80;51.90
55083;DHT22;40978;52.850;6.506;2022-07-24T15:27:04;30.60;51.80
55083;DHT22;40978;52.850;6.506;2022-07-24T15:29:30;30.50;53.10
55083;DHT22;40978;52.850;6.506;2022-07-24T15:31:57;30.50;53.20
55083;DHT22;40978;52.850;6.506;2022-07-24T15:34:23;30.50;52.90
55083;DHT22;40978;52.850;6.506;2022-07-24T15:36:48;30.40;52.70
55083;DHT22;40978;52.850;6.506;2022-07-24T15:39:14;30.40;53.40
55083;DHT22;40978;52.850;6.506;2022-07-24T15:41:40;30.30;53.90
55083;DHT22;40978;52.850;6.506;2022-07-24T15:44:06;30.30;54.70
55083;DHT22;40978;52.850;6.506;2022-07-24T15:46:31;30.40;55.10
55083;DHT22;40978;52.850;6.506;2022-07-24T15:48:57;30.40;54.10
55083;DHT22;40978;52.850;6.506;2022-07-24T15:51:23;30.40;54.00
55083;DHT22;40978;52.850;6.506;2022-07-24T15:53:48;30.30;53.20